Time;durP1;ratioP1;P1;durP2;ratioP2;P2;SDS_P1;SDS_P2;PMS_P1;PMS_P2;Temp;Humidity;BMP_temperature;BMP_pressure;BME280_temperature;BME280_humidity;BME280_pressure;Samples;Min_cycle;Max_cycle;Signal;HPM_P1;HPM_P2
2022/08/31 00:05:07;;;;;;;2.30;2.10;;;23.80;94.90;;;24.01;48.05;101528.03;4867673;28;102681;-42
2022/08/31 00:07:33;;;;;;;1.87;1.73;;;23.80;97.40;;;24.01;47.85;101529.84;4872214;28;100413;-43
2022/08/31 00:10:02;;;;;;;3.47;2.47;;;23.80;97.90;;;24.03;47.10;101536.84;4868849;28;97541;-46
2022/08/31 00:12:28;;;;;;;2.03;1.90;;;23.80;96.30;;;24.04;48.13;101533.19;4869931;28;99021;-44
2022/08/31 00:14:54;;;;;;;1.97;1.77;;;23.80;97.80;;;24.06;47.82;101534.88;4872083;28;99348;-47
2022/08/31 00:17:20;;;;;;;2.13;1.70;;;23.90;97.10;;;24.06;48.26;101535.75;4873316;28;97883;-44
2022/08/31 00:19:46;;;;;;;1.50;1.40;;;23.90;97.90;;;24.06;48.26;101529.50;4867018;28;99699;-44
2022/08/31 00:22:11;;;;;;;1.80;1.70;;;23.90;98.00;;;24.07;48.37;101520.44;4871811;28;112550;-45
2022/08/31 00:24:37;;;;;;;3.20;2.30;;;23.90;98.00;;;24.07;46.28;101525.81;4906066;28;97440;-42
2022/08/31 00:27:03;;;;;;;2.70;2.20;;;23.90;96.30;;;24.10;47.01;101525.56;4908934;28;96931;-44
2022/08/31 00:29:29;;;;;;;1.60;1.50;;;23.90;96.50;;;24.09;48.11;101529.25;4910848;28;97507;-44
2022/08/31 00:31:55;;;;;;;1.70;1.60;;;23.90;97.90;;;24.10;48.07;101530.97;4899975;28;97614;-43
2022/08/31 00:34:21;;;;;;;1.60;1.50;;;23.90;97.60;;;24.09;48.34;101530.09;4900177;28;111686;-44
2022/08/31 00:36:47;;;;;;;1.57;1.47;;;23.90;98.10;;;24.07;48.37;101525.81;4906232;28;97655;-44
2022/08/31 00:39:13;;;;;;;1.30;1.20;;;23.90;98.10;;;24.04;48.62;101522.41;4902234;28;96810;-43
2022/08/31 00:41:39;;;;;;;1.60;1.50;;;23.90;98.20;;;24.04;48.52;101527.78;4898115;28;97933;-45
2022/08/31 00:44:08;;;;;;;1.93;1.70;;;23.90;98.10;;;24.06;48.47;101522.28;4895129;28;98207;-44
2022/08/31 00:46:39;;;;;;;2.23;1.50;;;23.90;98.10;;;24.10;48.44;101528.28;4903877;28;97374;-43
2022/08/31 00:49:09;;;;;;;1.67;1.40;;;23.90;98.10;;;24.08;48.53;101522.16;4907984;28;99082;-44
2022/08/31 00:51:47;;;;;;;2.05;1.90;;;23.90;98.10;;;24.07;48.43;101525.81;4902788;28;97332;-43
2022/08/31 00:54:16;;;;;;;1.63;1.53;;;23.90;98.20;;;24.04;48.66;101514.31;4921015;28;97559;-44
2022/08/31 00:56:43;;;;;;;1.80;1.70;;;23.90;98.20;;;24.06;48.50;101514.19;4906897;28;96969;-43
2022/08/31 00:59:10;;;;;;;1.80;1.70;;;23.90;98.10;;;24.07;48.50;101515.03;4903212;28;97453;-44
2022/08/31 01:01:36;;;;;;;4.13;2.70;;;23.90;98.30;;;24.06;49.17;101529.50;4904573;28;97819;-43
2022/08/31 01:04:02;;;;;;;1.93;1.77;;;23.90;98.70;;;24.06;48.57;101524.97;4910346;28;108491;-45
2022/08/31 01:06:28;;;;;;;1.80;1.70;;;23.90;98.30;;;24.03;48.48;101528.75;4904037;28;97262;-45
2022/08/31 01:08:57;;;;;;;1.73;1.63;;;23.90;98.40;;;24.03;48.54;101528.75;4912054;28;96767;-43
2022/08/31 01:11:24;;;;;;;1.67;1.57;;;23.80;98.70;;;24.03;48.68;101531.47;4915519;28;96971;-44
2022/08/31 01:13:50;;;;;;;1.50;1.40;;;23.80;98.40;;;23.99;48.63;101518.31;4933631;28;101727;-42
2022/08/31 01:16:37;;;;;;;1.60;1.50;;;23.80;98.40;;;23.94;48.84;101521.41;4912369;28;97294;-43
2022/08/31 01:19:10;;;;;;;1.70;1.60;;;23.80;98.40;;;23.95;48.77;101525.81;4917511;28;97599;-46
2022/08/31 01:21:54;;;;;;;2.57;2.23;;;23.80;98.40;;;23.94;48.89;101516.00;4899192;28;97746;-42
2022/08/31 01:24:20;;;;;;;1.73;1.63;;;23.80;98.40;;;23.95;48.82;101524.94;4904894;28;97180;-45
2022/08/31 01:26:47;;;;;;;1.70;1.60;;;23.80;98.40;;;23.93;48.92;101525.06;4930308;28;97383;-43
2022/08/31 01:29:13;;;;;;;2.47;1.80;;;23.80;98.40;;;23.96;48.69;101527.50;4914434;28;97472;-43
2022/08/31 01:31:44;;;;;;;2.00;1.65;;;23.80;98.40;;;23.95;48.63;101528.50;4900214;28;97222;-43
2022/08/31 01:34:11;;;;;;;1.50;1.40;;;23.80;98.50;;;23.95;48.83;101530.34;4912138;28;98050;-44
2022/08/31 01:36:40;;;;;;;1.87;1.77;;;23.80;98.50;;;23.90;48.86;101525.31;4909358;28;96689;-43
2022/08/31 01:39:09;;;;;;;1.53;1.43;;;23.70;98.50;;;23.90;48.91;101517.22;4910038;28;96993;-44
2022/08/31 01:41:40;;;;;;;1.60;1.50;;;23.80;98.50;;;23.84;48.98;101514.13;4905112;28;98179;-42
2022/08/31 01:44:06;;;;;;;1.53;1.43;;;23.80;98.50;;;23.84;49.10;101514.13;4907193;28;97212;-42
2022/08/31 01:46:32;;;;;;;2.97;2.03;;;23.70;98.60;;;23.91;48.84;101520.78;4911849;28;97250;-43
2022/08/31 01:48:58;;;;;;;4.63;3.00;;;23.80;98.20;;;23.87;48.83;101530.94;4921203;28;101117;-42
2022/08/31 01:51:24;;;;;;;1.70;1.60;;;23.60;98.60;;;23.76;49.32;101539.00;4903967;28;111789;-45
2022/08/31 01:53:52;;;;;;;3.43;2.50;;;23.50;99.10;;;23.80;49.26;101551.25;4915885;28;97433;-42
2022/08/31 01:56:38;;;;;;;3.17;2.30;;;23.50;99.10;;;23.83;49.28;101545.59;4908904;28;96933;-45
2022/08/31 01:59:09;;;;;;;2.33;2.13;;;23.50;98.90;;;23.82;48.97;101543.91;4908694;28;96971;-42
2022/08/31 02:01:41;;;;;;;2.20;1.97;;;23.60;98.60;;;23.84;49.20;101541.94;4904997;28;96830;-43
2022/08/31 02:04:09;;;;;;;2.43;1.70;;;23.60;98.90;;;23.82;49.19;101549.28;4907483;28;97591;-44
2022/08/31 02:06:37;;;;;;;1.67;1.57;;;23.60;99.30;;;23.83;49.26;101540.22;4909068;28;97379;-44
2022/08/31 02:09:05;;;;;;;1.97;1.87;;;23.70;98.90;;;23.79;49.33;101538.75;4906837;28;97385;-44
2022/08/31 02:11:31;;;;;;;1.83;1.73;;;23.70;98.90;;;23.81;49.40;101541.31;4906825;28;98256;-42
2022/08/31 02:13:57;;;;;;;1.90;1.80;;;23.70;98.80;;;23.81;49.33;101542.19;4910710;28;97334;-45
2022/08/31 02:16:23;;;;;;;3.70;2.83;;;23.70;98.80;;;23.85;48.61;101543.66;4907827;28;97228;-43
2022/08/31 02:18:50;;;;;;;4.33;3.43;;;23.70;98.40;;;23.81;49.79;101555.66;4912147;28;97441;-42
2022/08/31 02:21:16;;;;;;;3.20;2.87;;;23.50;99.30;;;23.76;49.33;101554.31;4903864;28;97456;-42
2022/08/31 02:23:41;;;;;;;5.17;2.57;;;23.40;99.30;;;23.74;49.40;101567.88;4902479;28;97277;-43
2022/08/31 02:26:07;;;;;;;5.37;3.13;;;23.40;99.30;;;23.74;48.82;101567.88;4910458;28;96919;-42
2022/08/31 02:28:34;;;;;;;1.67;1.57;;;23.40;98.70;;;23.69;49.58;101560.13;4906530;28;97088;-42
2022/08/31 02:30:59;;;;;;;1.70;1.60;;;23.50;99.30;;;23.66;49.75;101549.59;4902169;28;111453;-44
2022/08/31 02:33:25;;;;;;;2.00;1.90;;;23.50;99.20;;;23.60;49.67;101543.84;4904798;28;104955;-44
2022/08/31 02:35:52;;;;;;;1.70;1.60;;;23.50;99.50;;;23.70;49.67;101561.00;4901666;28;99806;-45
2022/08/31 02:38:18;;;;;;;4.93;4.00;;;23.50;99.10;;;23.76;50.96;101563.25;4919753;28;110432;-48
2022/08/31 02:40:44;;;;;;;4.27;3.40;;;23.60;99.90;;;23.74;51.20;101567.88;4907899;28;101990;-44
2022/08/31 02:43:11;;;;;;;3.03;2.60;;;23.50;99.90;;;23.71;49.81;101573.47;4916059;28;97357;-43
2022/08/31 02:45:38;;;;;;;3.77;3.47;;;23.40;99.90;;;23.69;49.71;101578.13;4899313;28;97483;-43
2022/08/31 02:48:06;;;;;;;2.30;2.10;;;23.40;99.70;;;23.68;49.87;101569.19;4905689;28;97582;-42
2022/08/31 02:50:32;;;;;;;4.27;3.40;;;23.40;99.90;;;23.66;50.39;101570.28;4905594;28;97948;-44
2022/08/31 02:52:58;;;;;;;2.13;1.90;;;23.40;99.90;;;23.66;49.73;101567.59;4911915;28;98792;-43
2022/08/31 02:55:26;;;;;;;1.90;1.80;;;23.40;99.80;;;23.67;49.69;101569.31;4905669;28;98121;-51
2022/08/31 02:57:52;;;;;;;1.90;1.80;;;23.40;99.70;;;23.69;49.93;101572.75;4906607;28;98311;-43
2022/08/31 03:00:20;;;;;;;5.27;4.00;;;23.40;99.90;;;23.62;52.26;101574.22;4906056;28;124289;-44
2022/08/31 03:02:47;;;;;;;4.13;3.73;;;23.30;99.90;;;23.49;51.69;101568.00;4894472;28;97070;-46
2022/08/31 03:05:14;;;;;;;2.50;2.30;;;23.00;99.90;;;23.44;51.22;101571.06;4904968;28;97744;-44
2022/08/31 03:07:40;;;;;;;4.87;3.47;;;23.00;99.90;;;23.38;52.30;101572.34;4916045;28;96814;-46
2022/08/31 03:10:10;;;;;;;5.03;3.67;;;22.90;99.90;;;23.34;52.46;101565.50;4904945;28;97939;-42
2022/08/31 03:12:36;;;;;;;2.30;2.10;;;22.80;99.90;;;23.30;52.39;101574.78;4906553;28;97459;-46
2022/08/31 03:15:05;;;;;;;4.73;3.70;;;22.80;99.90;;;23.22;52.46;101571.78;4906462;28;98159;-45
2022/08/31 03:17:31;;;;;;;3.90;3.30;;;22.70;99.90;;;23.18;53.01;101570.31;4906322;28;97627;-43
2022/08/31 03:20:01;;;;;;;5.97;4.70;;;22.60;99.90;;;23.15;53.36;101570.53;4900568;28;96926;-43
2022/08/31 03:22:28;;;;;;;5.13;4.57;;;22.50;99.90;;;23.10;53.65;101572.69;4923322;28;97031;-44
2022/08/31 03:24:54;;;;;;;6.00;4.03;;;22.50;99.90;;;23.02;53.67;101580.47;4904798;28;98206;-43
2022/08/31 03:27:20;;;;;;;5.20;4.43;;;22.40;99.90;;;23.00;54.65;101571.63;4909828;28;97376;-45
2022/08/31 03:29:45;;;;;;;6.57;4.87;;;22.40;99.90;;;22.98;53.74;101573.59;4900833;28;112529;-45
2022/08/31 03:32:12;;;;;;;5.10;4.60;;;22.30;99.90;;;22.94;55.20;101572.97;4897938;28;110737;-42
2022/08/31 03:34:38;;;;;;;7.57;5.10;;;22.30;99.90;;;22.89;54.74;101575.13;4901551;28;96867;-42
2022/08/31 03:37:05;;;;;;;2.30;2.10;;;22.20;99.90;;;22.83;53.39;101562.97;4910923;28;99041;-43
2022/08/31 03:39:31;;;;;;;2.37;1.90;;;22.20;99.90;;;22.83;53.07;101562.13;4909404;28;109432;-44
2022/08/31 03:41:56;;;;;;;2.97;2.17;;;22.20;99.90;;;22.90;52.72;101551.78;4911886;28;102490;-43
2022/08/31 03:44:22;;;;;;;2.47;2.10;;;22.40;99.90;;;22.99;52.38;101553.78;4915628;28;107911;-42
2022/08/31 03:46:49;;;;;;;1.83;1.73;;;22.60;99.90;;;23.09;52.31;101549.44;4899534;28;97010;-43
2022/08/31 03:49:18;;;;;;;4.67;3.83;;;22.70;99.90;;;23.15;53.94;101559.78;4896737;28;98277;-43
2022/08/31 03:51:44;;;;;;;5.03;3.00;;;22.80;99.90;;;23.19;52.98;101555.88;4902923;28;98567;-45
2022/08/31 03:54:11;;;;;;;2.30;2.10;;;22.90;99.90;;;23.25;51.72;101554.53;4907377;28;98118;-43
2022/08/31 03:56:38;;;;;;;2.00;1.90;;;22.90;99.90;;;23.31;51.44;101549.56;4904901;28;97708;-44
2022/08/31 03:59:06;;;;;;;2.40;2.10;;;23.10;99.90;;;23.38;51.40;101555.34;4905837;28;100240;-43
2022/08/31 04:01:34;;;;;;;1.73;1.63;;;23.20;99.90;;;23.43;51.17;101548.66;4909367;28;97207;-44
2022/08/31 04:04:00;;;;;;;2.63;2.10;;;23.20;99.90;;;23.48;50.94;101539.34;4901227;28;97434;-44
2022/08/31 04:06:26;;;;;;;4.97;4.23;;;23.30;99.90;;;23.53;52.12;101543.41;4900781;28;97727;-46
2022/08/31 04:08:52;;;;;;;2.23;2.03;;;23.30;99.90;;;23.54;51.01;101541.56;4911431;28;118479;-45
2022/08/31 04:11:18;;;;;;;2.13;1.93;;;23.30;99.90;;;23.58;50.64;101545.78;4918752;28;121443;-43
2022/08/31 04:13:46;;;;;;;4.60;3.97;;;23.40;99.90;;;23.53;53.15;101547.94;4906314;28;96715;-43
2022/08/31 04:16:16;;;;;;;3.93;3.43;;;23.30;99.90;;;23.33;53.03;101547.63;4909347;28;97814;-43
2022/08/31 04:18:44;;;;;;;6.33;4.40;;;22.90;99.90;;;23.19;54.41;101545.09;4908687;28;97644;-44
2022/08/31 04:21:14;;;;;;;3.40;3.10;;;22.60;99.90;;;23.11;53.20;101547.50;4912210;28;97040;-44
2022/08/31 04:23:40;;;;;;;7.43;4.90;;;22.50;99.90;;;23.05;54.21;101547.97;4908233;28;97568;-47
2022/08/31 04:26:15;;;;;;;5.17;4.33;;;22.40;99.90;;;22.93;53.89;101549.72;4910327;28;97202;-43
2022/08/31 04:28:41;;;;;;;5.50;4.97;;;22.30;99.90;;;22.77;54.93;101555.31;4902245;28;99382;-42
2022/08/31 04:31:07;;;;;;;5.43;4.93;;;22.10;99.90;;;22.64;55.22;101548.25;4897888;28;105107;-44
2022/08/31 04:33:38;;;;;;;4.37;3.33;;;21.90;99.90;;;22.59;54.16;101562.06;4904848;28;96979;-43
2022/08/31 04:36:11;;;;;;;5.20;4.20;;;21.80;99.90;;;22.58;54.47;101563.03;4905729;28;100727;-44
2022/08/31 04:38:37;;;;;;;6.10;5.50;;;21.80;99.90;;;22.54;55.64;101564.19;4906092;28;96985;-44
2022/08/31 04:41:09;;;;;;;3.43;3.13;;;21.80;99.90;;;22.56;54.62;101567.63;4886049;28;99768;-45
2022/08/31 04:43:37;;;;;;;8.87;5.13;;;21.90;99.90;;;22.56;55.53;101563.09;4896205;28;97349;-44
2022/08/31 04:46:05;;;;;;;6.17;4.63;;;21.90;99.90;;;22.59;54.16;101567.41;4909197;28;98193;-45
2022/08/31 04:48:32;;;;;;;5.17;4.30;;;22.00;99.90;;;22.64;54.17;101569.78;4920930;28;97695;-45
2022/08/31 04:51:17;;;;;;;2.40;2.00;;;22.10;99.90;;;22.74;53.64;101576.22;4902299;28;97372;-43
2022/08/31 04:53:44;;;;;;;5.57;4.50;;;22.20;99.90;;;22.68;55.11;101577.50;4909335;28;97434;-44
2022/08/31 04:56:17;;;;;;;5.97;4.50;;;22.10;99.90;;;22.61;54.79;101581.63;4905605;28;97322;-44
2022/08/31 04:58:47;;;;;;;3.17;2.67;;;22.00;99.90;;;22.64;54.04;101573.31;4894320;28;99493;-45
2022/08/31 05:01:17;;;;;;;3.37;2.33;;;22.00;99.90;;;22.71;53.53;101577.31;4899935;28;97513;-45
2022/08/31 05:03:43;;;;;;;2.50;1.90;;;22.10;99.90;;;22.76;53.78;101580.50;4901760;28;97712;-43
2022/08/31 05:06:15;;;;;;;2.63;2.43;;;22.20;99.90;;;22.77;53.95;101571.47;4909471;28;96870;-46
2022/08/31 05:08:41;;;;;;;2.30;2.10;;;22.20;99.90;;;22.79;53.60;101569.53;4894413;28;98184;-44
2022/08/31 05:11:13;;;;;;;2.50;1.97;;;22.30;99.90;;;22.84;53.49;101577.28;4907542;28;96826;-55
2022/08/31 05:13:39;;;;;;;2.40;2.20;;;22.30;99.90;;;22.88;53.28;101577.94;4912378;28;97390;-43
2022/08/31 05:16:09;;;;;;;3.90;3.37;;;22.40;99.90;;;22.92;53.90;101576.72;4908561;28;97521;-43
2022/08/31 05:18:39;;;;;;;2.73;2.20;;;22.40;99.90;;;22.91;53.71;101583.09;4907501;28;97193;-43
2022/08/31 05:21:25;;;;;;;3.40;3.10;;;22.40;99.90;;;22.91;53.94;101583.09;4900406;28;97820;-44
2022/08/31 05:23:52;;;;;;;2.57;2.37;;;22.30;99.90;;;22.85;53.94;101584.38;4899055;28;97736;-47
2022/08/31 05:26:21;;;;;;;5.03;3.27;;;22.20;99.90;;;22.84;53.88;101583.50;4905666;28;97057;-43
2022/08/31 05:28:47;;;;;;;2.00;1.90;;;22.20;99.90;;;22.84;53.50;101578.13;4897594;28;98106;-43
2022/08/31 05:31:14;;;;;;;5.63;4.03;;;22.30;99.90;;;22.85;54.17;101574.47;4902763;28;99993;-44
2022/08/31 05:33:41;;;;;;;4.63;4.13;;;22.30;99.90;;;22.82;54.20;101580.09;4894241;28;99107;-44
2022/08/31 05:36:08;;;;;;;5.60;4.57;;;22.20;99.90;;;22.79;54.09;101593.72;4905311;28;97668;-45
2022/08/31 05:38:34;;;;;;;3.10;2.80;;;22.20;99.90;;;22.80;54.01;101587.38;4897705;28;97229;-44
2022/08/31 05:41:00;;;;;;;7.83;3.43;;;22.10;99.90;;;22.79;54.12;101585.66;4910462;28;97683;-45
2022/08/31 05:43:27;;;;;;;3.10;2.90;;;22.20;99.90;;;22.76;54.06;101585.88;4903478;28;97463;-45
2022/08/31 05:45:53;;;;;;;3.17;2.63;;;22.10;99.90;;;22.77;53.66;101582.22;4907347;28;96805;-43
2022/08/31 05:48:21;;;;;;;3.80;3.27;;;22.20;99.90;;;22.80;54.11;101587.38;4900512;28;98083;-46
2022/08/31 05:50:47;;;;;;;2.93;2.53;;;22.20;99.90;;;22.80;54.10;101581.13;4899755;28;97347;-42
2022/08/31 05:53:14;;;;;;;3.10;2.80;;;22.20;99.90;;;22.83;54.00;101592.56;4900307;28;98258;-42
2022/08/31 05:55:40;;;;;;;6.67;4.63;;;22.30;99.90;;;22.84;54.47;101588.91;4899498;28;97585;-43
2022/08/31 05:58:06;;;;;;;8.00;4.43;;;22.30;99.90;;;22.85;54.18;101593.31;4904795;28;98335;-45
2022/08/31 06:00:32;;;;;;;2.90;2.60;;;22.30;99.90;;;22.85;54.03;101579.84;4913989;28;97472;-47
2022/08/31 06:02:58;;;;;;;2.47;2.27;;;22.30;99.90;;;22.90;53.61;101578.69;4916741;28;97426;-44
2022/08/31 06:05:25;;;;;;;2.17;1.97;;;22.40;99.90;;;22.92;53.27;101585.66;4905064;28;112265;-54
2022/08/31 06:07:51;;;;;;;3.63;3.33;;;22.40;99.90;;;22.96;53.72;101591.66;4913397;28;98606;-43
2022/08/31 06:10:18;;;;;;;8.70;6.30;;;22.50;99.90;;;22.94;53.91;101583.72;4906764;28;99500;-43
2022/08/31 06:12:46;;;;;;;7.27;5.90;;;22.40;99.90;;;22.90;54.21;101586.75;4908328;28;97676;-45
2022/08/31 06:15:14;;;;;;;6.30;5.70;;;22.40;99.90;;;22.83;54.83;101589.88;4911146;28;97721;-45
2022/08/31 06:17:40;;;;;;;7.13;5.70;;;22.20;99.90;;;22.83;54.44;101581.81;4907153;28;97204;-44
2022/08/31 06:20:08;;;;;;;6.90;5.47;;;22.20;99.90;;;22.82;54.94;101596.22;4912793;28;111492;-46
2022/08/31 06:22:35;;;;;;;7.30;4.87;;;22.20;99.90;;;22.84;54.34;101591.59;4905357;28;97588;-44
2022/08/31 06:25:04;;;;;;;7.03;6.37;;;22.20;99.90;;;22.84;55.30;101591.59;4906442;28;97453;-43
2022/08/31 06:27:31;;;;;;;6.13;5.10;;;22.30;99.90;;;22.85;55.10;101596.00;4910468;28;96891;-43
2022/08/31 06:29:57;;;;;;;5.37;4.40;;;22.30;99.90;;;22.84;54.44;101588.91;4904218;28;99041;-44
2022/08/31 06:32:25;;;;;;;2.70;2.50;;;22.30;99.90;;;22.84;53.97;101594.28;4894994;28;99195;-44
2022/08/31 06:34:51;;;;;;;2.40;2.20;;;22.30;99.90;;;22.94;53.37;101594.47;4884735;28;97475;-43
2022/08/31 06:37:16;;;;;;;2.47;2.27;;;22.50;99.90;;;23.06;52.96;101592.72;4898008;28;110488;-50
2022/08/31 06:39:42;;;;;;;1.97;1.87;;;22.70;99.90;;;23.14;52.73;101599.25;4901640;28;121914;-52
2022/08/31 06:42:08;;;;;;;2.30;1.97;;;22.90;99.90;;;23.24;52.36;101602.13;4905285;28;106475;-54
2022/08/31 06:44:34;;;;;;;2.27;2.07;;;23.00;99.90;;;23.27;52.35;101601.91;4907333;28;105130;-53
2022/08/31 06:46:59;;;;;;;2.20;1.67;;;23.10;99.90;;;23.37;52.17;101600.25;4905653;28;112365;-55
2022/08/31 06:49:25;;;;;;;2.07;1.87;;;23.20;99.90;;;23.45;51.83;101605.94;4900047;28;97166;-51
2022/08/31 06:51:51;;;;;;;2.37;2.17;;;23.30;99.90;;;23.49;51.65;101595.78;4908047;28;98585;-44
2022/08/31 06:54:18;;;;;;;2.10;1.90;;;23.30;99.90;;;23.53;51.71;101602.66;4900766;28;97372;-49
2022/08/31 06:56:44;;;;;;;1.67;1.57;;;23.40;99.90;;;23.58;51.72;101591.56;4898617;28;97467;-51
2022/08/31 06:59:11;;;;;;;2.33;2.10;;;23.40;99.90;;;23.62;51.08;101598.44;4912516;28;97189;-55
2022/08/31 07:01:38;;;;;;;2.23;2.00;;;23.50;99.90;;;23.64;51.37;101599.19;4909537;28;97587;-44
2022/08/31 07:04:08;;;;;;;2.30;2.10;;;23.50;99.90;;;23.69;51.17;101602.38;4912443;28;100445;-49
2022/08/31 07:06:39;;;;;;;2.23;2.07;;;23.50;99.90;;;23.74;51.27;101602.91;4897433;28;97726;-51
2022/08/31 07:09:09;;;;;;;2.03;1.83;;;23.60;99.90;;;23.72;51.17;101600.34;4906885;28;97198;-55
2022/08/31 07:11:39;;;;;;;1.80;1.70;;;23.50;99.90;;;23.75;51.10;101610.00;4909059;28;97361;-47
2022/08/31 07:14:08;;;;;;;3.77;2.97;;;23.50;99.90;;;23.76;51.49;101614.41;4898476;28;97560;-44
2022/08/31 07:16:35;;;;;;;5.60;3.57;;;23.50;99.90;;;23.70;51.96;101607.66;4912825;28;98908;-51
2022/08/31 07:19:05;;;;;;;3.60;2.80;;;23.40;99.90;;;23.69;51.43;101610.47;4903840;28;98221;-50
2022/08/31 07:21:44;;;;;;;2.10;1.90;;;23.40;99.90;;;23.69;51.01;101607.75;4912222;28;97318;-42
2022/08/31 07:24:14;;;;;;;3.93;2.20;;;23.40;99.90;;;23.69;51.20;101613.16;4907087;28;97620;-44
2022/08/31 07:26:47;;;;;;;4.87;2.93;;;23.40;99.90;;;23.70;51.77;101617.56;4905688;28;97811;-43
2022/08/31 07:29:17;;;;;;;2.23;2.03;;;23.40;99.90;;;23.66;51.43;101618.78;4906591;28;97385;-43
2022/08/31 07:31:45;;;;;;;4.73;3.27;;;23.40;99.90;;;23.61;52.36;101612.88;4905550;28;97181;-43
2022/08/31 07:34:18;;;;;;;1.97;1.87;;;23.30;99.90;;;23.57;52.22;101609.53;4901303;28;97691;-42
2022/08/31 07:42:26;;;;;;;6.27;5.10;;;23.10;99.90;;;23.44;52.40;101620.38;4911042;28;97085;-45
2022/08/31 07:44:53;;;;;;;5.13;4.60;;;23.00;99.90;;;23.38;53.33;101628.88;4891489;28;97597;-43
2022/08/31 07:47:19;;;;;;;12.57;5.77;;;22.90;99.90;;;23.34;52.96;101630.09;4894341;28;98182;-43
2022/08/31 07:49:51;;;;;;;12.13;5.50;;;22.90;99.90;;;23.25;54.09;101630.75;4914493;28;97464;-43
2022/08/31 07:52:25;;;;;;;6.60;4.93;;;22.70;99.90;;;23.23;53.89;101632.72;4892705;28;97468;-42
2022/08/31 07:54:53;;;;;;;6.60;4.43;;;22.70;99.90;;;23.23;53.14;101631.84;4903688;28;97190;-43
2022/08/31 07:57:23;;;;;;;2.97;2.77;;;22.70;99.90;;;23.25;52.99;101635.28;4903495;28;97938;-44
2022/08/31 08:00:06;;;;;;;3.57;3.23;;;22.80;99.90;;;23.24;53.26;101629.03;4893810;28;97806;-43
2022/08/31 08:02:36;;;;;;;4.10;3.73;;;22.80;99.90;;;23.24;52.95;101634.44;4911468;28;97625;-43
2022/08/31 08:05:10;;;;;;;6.47;5.30;;;22.80;99.90;;;23.28;52.91;101630.53;4894241;28;97916;-43
2022/08/31 08:07:38;;;;;;;4.10;3.70;;;22.90;99.90;;;23.31;52.52;101633.03;4897601;28;97976;-43
2022/08/31 08:10:08;;;;;;;3.00;2.47;;;23.00;99.90;;;23.35;52.03;101636.34;4906050;28;98399;-44
2022/08/31 08:12:35;;;;;;;7.30;5.00;;;23.00;99.90;;;23.35;52.65;101641.72;4904783;28;97202;-43
2022/08/31 08:15:03;;;;;;;6.63;5.07;;;23.00;99.90;;;23.34;52.88;101645.38;4900279;28;97547;-43
2022/08/31 08:17:29;;;;;;;5.13;4.47;;;23.00;99.90;;;23.32;52.60;101640.13;4902142;28;97440;-44
2022/08/31 08:19:55;;;;;;;2.50;2.30;;;22.90;99.90;;;23.36;52.63;101641.59;4915270;28;112301;-45
2022/08/31 08:22:21;;;;;;;4.03;3.23;;;23.00;99.90;;;23.34;52.27;101640.00;4900160;28;99298;-43
2022/08/31 08:24:47;;;;;;;2.63;2.40;;;23.00;99.90;;;23.37;52.12;101646.00;4912342;28;97262;-42
2022/08/31 08:27:14;;;;;;;2.40;2.20;;;23.10;99.90;;;23.39;51.84;101644.06;4904078;28;97389;-44
2022/08/31 08:29:40;;;;;;;2.67;2.20;;;23.20;99.90;;;23.45;51.69;101638.25;4907646;28;103572;-43
2022/08/31 08:32:09;;;;;;;2.57;2.37;;;23.30;99.90;;;23.45;51.77;101632.84;4917113;28;96835;-44
2022/08/31 08:34:42;;;;;;;3.87;3.53;;;23.40;99.90;;;23.53;52.10;101644.88;4911563;28;97559;-44
2022/08/31 08:37:10;;;;;;;2.50;2.30;;;23.40;99.90;;;23.57;51.42;101646.34;4908952;28;96865;-43
2022/08/31 08:39:37;;;;;;;4.00;3.43;;;23.50;99.90;;;23.62;51.22;101638.84;4896737;28;97056;-42
2022/08/31 08:42:07;;;;;;;7.60;5.30;;;23.50;99.90;;;23.69;50.54;101646.31;4907629;28;97441;-43
2022/08/31 08:44:35;;;;;;;2.10;1.90;;;23.50;99.90;;;23.70;50.94;101641.81;4913410;28;99236;-44
2022/08/31 08:47:19;;;;;;;3.10;2.67;;;23.50;99.90;;;23.76;51.39;101638.66;4926589;28;101040;-42
2022/08/31 08:49:55;;;;;;;2.57;2.30;;;23.60;99.90;;;23.74;50.73;101649.56;4900777;28;97265;-45
2022/08/31 08:52:42;;;;;;;2.47;2.13;;;23.60;99.90;;;23.74;50.86;101637.94;4904169;28;97007;-45
2022/08/31 08:55:33;;;;;;;2.07;1.97;;;23.60;99.90;;;23.66;51.31;101645.72;4901925;28;97101;-45
2022/08/31 08:58:01;;;;;;;2.40;2.20;;;23.60;99.90;;;23.63;51.04;101645.94;4907319;28;101843;-54
2022/08/31 09:00:27;;;;;;;2.67;2.33;;;23.60;99.90;;;23.68;51.02;101647.31;4905576;28;98381;-55
2022/08/31 09:03:29;;;;;;;2.93;2.60;;;23.60;99.90;;;23.72;50.83;101646.13;4880729;28;98615;-55
2022/08/31 09:06:23;;;;;;;2.80;2.60;;;23.70;99.90;;;23.65;51.09;101644.00;4870050;28;97500;-54
2022/08/31 09:09:27;;;;;;;3.70;3.10;;;23.60;99.90;;;23.75;50.75;101639.63;4866312;28;98974;-54
2022/08/31 09:12:50;;;;;;;2.87;2.57;;;23.60;99.90;;;23.73;50.89;101646.97;4864704;28;106498;-51
2022/08/31 09:15:55;;;;;;;3.00;2.70;;;23.70;99.90;;;23.53;51.31;101640.34;4867664;28;96982;-53
2022/08/31 09:18:42;;;;;;;2.97;2.78;;;23.60;99.90;;;23.63;50.94;101643.25;4903486;28;97925;-52
2022/08/31 09:21:26;;;;;;;4.13;2.78;;;23.60;99.90;;;23.71;51.13;101643.50;4910940;28;102887;-55
2022/08/31 09:24:00;;;;;;;3.17;2.83;;;23.60;99.90;;;23.73;50.68;101631.69;4917842;28;99574;-51
2022/08/31 09:26:34;;;;;;;4.07;2.90;;;23.70;99.90;;;23.79;50.54;101640.25;4898701;28;97568;-57
2022/08/31 09:29:07;;;;;;;3.53;2.83;;;23.70;99.90;;;23.78;50.78;101634.00;4911043;28;104491;-52
2022/08/31 09:31:40;;;;;;;3.00;2.80;;;23.70;99.90;;;23.79;50.70;101630.34;4898556;28;97278;-54
2022/08/31 09:34:30;;;;;;;5.10;4.27;;;23.70;99.90;;;23.81;50.50;101639.16;4908641;28;97817;-48
2022/08/31 09:37:31;;;;;;;3.30;3.00;;;23.70;99.90;;;23.83;50.01;101637.22;4896115;28;97472;-54
2022/08/31 09:40:16;;;;;;;3.07;2.77;;;23.70;99.90;;;23.85;50.48;101634.41;4901758;28;97150;-56
2022/08/31 09:42:46;;;;;;;4.20;3.53;;;23.80;99.90;;;23.83;50.59;101637.22;4907931;28;96662;-54
2022/08/31 09:45:28;;;;;;;3.83;3.20;;;23.80;99.90;;;23.91;50.25;101634.81;4911124;28;97111;-52
2022/08/31 09:47:59;;;;;;;3.43;3.13;;;23.80;99.90;;;23.87;50.43;101638.72;4908410;28;98706;-52
2022/08/31 09:50:31;;;;;;;5.00;4.50;;;23.80;99.90;;;23.94;49.67;101639.94;4911662;28;97374;-54
2022/08/31 09:56:12;;;;;;;3.57;3.27;;;23.80;99.90;;;23.83;50.48;101639.91;4903282;28;104709;-50
2022/08/31 09:58:43;;;;;;;3.58;3.22;;;23.80;99.90;;;23.85;50.36;101635.25;4914314;28;97461;-55
2022/08/31 10:01:23;;;;;;;3.17;2.85;;;23.80;99.90;;;23.93;50.34;101632.84;4909619;28;97423;-47
2022/08/31 10:03:49;;;;;;;3.38;3.08;;;23.80;99.90;;;23.90;50.33;101637.63;4898893;28;97303;-52
2022/08/31 10:07:06;;;;;;;6.00;4.30;;;23.80;99.90;;;24.03;49.27;101633.88;4925686;28;97035;-51
2022/08/31 10:09:47;;;;;;;3.80;3.40;;;23.90;99.90;;;24.02;49.77;101632.16;4915503;28;97428;-52
2022/08/31 10:12:21;;;;;;;5.20;3.50;;;23.90;99.90;;;24.06;49.38;101640.00;4912331;28;97455;-53
2022/08/31 10:14:58;;;;;;;4.32;3.90;;;23.90;99.90;;;24.09;49.07;101631.66;4898491;28;97939;-55
2022/08/31 10:17:37;;;;;;;4.15;3.75;;;23.90;99.90;;;24.12;49.73;101631.41;4906128;28;97565;-55
2022/08/31 10:20:24;;;;;;;4.88;4.35;;;24.00;99.90;;;24.18;49.52;101630.97;4900296;28;98820;-50
2022/08/31 10:22:56;;;;;;;6.85;4.78;;;24.00;99.90;;;24.16;49.60;101635.59;4905232;28;96958;-55
2022/08/31 10:25:31;;;;;;;6.38;5.07;;;24.00;99.90;;;24.23;49.51;101636.84;4902618;28;97344;-52
2022/08/31 10:28:36;;;;;;;4.00;3.03;;;24.10;99.90;;;24.11;49.71;101635.94;4906458;28;102987;-52
2022/08/31 10:31:30;;;;;;;9.50;5.30;;;24.10;99.90;;;24.17;50.39;101634.63;4904351;28;97497;-51
2022/08/31 10:36:52;;;;;;;10.50;5.35;;;24.10;99.90;;;24.31;50.53;101631.75;4912709;28;101571;-55
2022/08/31 10:39:33;;;;;;;7.82;5.60;;;24.20;99.90;;;24.32;51.03;101628.09;4900485;28;97550;-50